Time;durP1;ratioP1;P1;durP2;ratioP2;P2;SDS_P1;SDS_P2;PMS_P1;PMS_P2;Temp;Humidity;BMP_temperature;BMP_pressure;BME280_temperature;BME280_humidity;BME280_pressure;Samples;Min_cycle;Max_cycle;Signal;HPM_P1;HPM_P2
2021/11/24 00:02:17;;;;;;;7.93;1.40;;;8.60;99.90;;;;;;4889854;29;20059;-71
2021/11/24 00:04:43;;;;;;;4.70;0.90;;;8.60;99.90;;;;;;4889454;29;20052;-72
2021/11/24 00:07:09;;;;;;;13.48;1.20;;;8.60;99.90;;;;;;4888370;29;20213;-71
2021/11/24 00:09:35;;;;;;;12.48;1.30;;;8.60;99.90;;;;;;4889019;29;20044;-73
2021/11/24 00:12:03;;;;;;;7.85;1.45;;;8.60;99.90;;;;;;4887946;29;20032;-71
2021/11/24 00:14:30;;;;;;;10.07;1.50;;;8.60;99.90;;;;;;4888487;29;20039;-71
2021/11/24 00:16:55;;;;;;;9.00;1.60;;;8.60;99.90;;;;;;4888750;29;20104;-71
2021/11/24 00:19:21;;;;;;;8.07;1.15;;;8.60;99.90;;;;;;4889336;29;20037;-71
2021/11/24 00:21:47;;;;;;;7.72;0.90;;;8.60;99.90;;;;;;4888477;29;20283;-71
2021/11/24 00:24:13;;;;;;;8.38;0.90;;;8.70;99.90;;;;;;4888163;29;20658;-71
2021/11/24 00:26:39;;;;;;;9.05;1.38;;;8.70;99.90;;;;;;4871292;29;20033;-71
2021/11/24 00:29:05;;;;;;;11.13;1.00;;;8.70;99.90;;;;;;4888866;29;20369;-71
2021/11/24 00:31:31;;;;;;;9.35;1.92;;;8.70;99.90;;;;;;4888978;29;20196;-71
2021/11/24 00:33:56;;;;;;;19.17;2.00;;;8.70;99.90;;;;;;4888843;29;20074;-72
2021/11/24 00:36:22;;;;;;;10.40;1.83;;;8.70;99.90;;;;;;4888370;29;20028;-71
2021/11/24 00:38:48;;;;;;;8.00;1.45;;;8.70;99.90;;;;;;4889852;29;20104;-71
2021/11/24 00:41:14;;;;;;;10.00;1.73;;;8.70;99.90;;;;;;4888797;29;20037;-71
2021/11/24 00:43:40;;;;;;;10.65;1.17;;;8.70;99.90;;;;;;4888223;29;20104;-71
2021/11/24 00:46:06;;;;;;;10.00;2.45;;;8.70;99.90;;;;;;4889346;29;20099;-71
2021/11/24 00:48:32;;;;;;;11.70;1.60;;;8.70;99.90;;;;;;4888172;29;20314;-72
2021/11/24 00:50:58;;;;;;;6.93;1.40;;;8.70;99.90;;;;;;4889145;29;20052;-71
2021/11/24 00:53:24;;;;;;;14.38;1.63;;;8.70;99.90;;;;;;4888726;29;20032;-71
2021/11/24 00:55:49;;;;;;;6.32;1.33;;;8.70;99.90;;;;;;4889450;29;20048;-71
2021/11/24 00:58:17;;;;;;;9.43;1.40;;;8.80;99.90;;;;;;4888517;29;20024;-71
2021/11/24 01:00:44;;;;;;;8.52;1.55;;;8.70;99.90;;;;;;4888224;29;20038;-71
2021/11/24 01:03:09;;;;;;;8.93;1.85;;;8.70;99.90;;;;;;4889050;29;20099;-72
2021/11/24 01:05:35;;;;;;;10.95;1.25;;;8.70;99.90;;;;;;4888323;29;20251;-71
2021/11/24 01:08:02;;;;;;;9.00;1.38;;;8.60;99.90;;;;;;4887944;29;20317;-71
2021/11/24 01:10:28;;;;;;;8.02;1.20;;;8.60;99.90;;;;;;4888058;29;20029;-71
2021/11/24 01:12:53;;;;;;;9.93;1.85;;;8.60;99.90;;;;;;4888354;29;20025;-71
2021/11/24 01:15:19;;;;;;;8.18;1.70;;;8.60;99.90;;;;;;4887625;29;20044;-71
2021/11/24 01:17:45;;;;;;;11.85;1.73;;;8.60;99.90;;;;;;4887991;29;20315;-71
2021/11/24 01:20:12;;;;;;;8.38;1.60;;;8.60;99.90;;;;;;4888226;29;20064;-71
2021/11/24 01:22:39;;;;;;;13.40;1.80;;;8.50;99.90;;;;;;4888258;29;20136;-71
2021/11/24 01:25:05;;;;;;;5.53;1.23;;;8.50;99.90;;;;;;4892062;29;20275;-71
2021/11/24 01:27:31;;;;;;;16.52;1.70;;;8.50;99.90;;;;;;4891055;29;20039;-71
2021/11/24 01:29:57;;;;;;;8.57;1.55;;;8.50;99.90;;;;;;4891934;29;20081;-71
2021/11/24 01:32:23;;;;;;;11.13;1.10;;;8.40;99.90;;;;;;4892013;29;20115;-71
2021/11/24 01:34:49;;;;;;;13.63;1.58;;;8.40;99.90;;;;;;4891583;29;20494;-71
2021/11/24 01:37:15;;;;;;;12.55;1.63;;;8.30;99.90;;;;;;4892246;29;20048;-71
2021/11/24 01:39:41;;;;;;;7.10;1.50;;;8.30;99.90;;;;;;4891492;29;20272;-71
2021/11/24 01:42:07;;;;;;;7.88;1.25;;;8.20;99.90;;;;;;4891499;29;20089;-71
2021/11/24 01:44:33;;;;;;;7.47;0.98;;;8.20;99.90;;;;;;4891098;29;20042;-71
2021/11/24 01:47:02;;;;;;;3.47;1.10;;;8.10;99.90;;;;;;4874268;29;20029;-71
2021/11/24 01:49:29;;;;;;;8.93;1.10;;;8.10;99.90;;;;;;4892498;29;20040;-71
2021/11/24 01:51:58;;;;;;;8.80;1.83;;;8.00;99.90;;;;;;4874813;29;20029;-71
2021/11/24 01:54:25;;;;;;;9.10;1.88;;;8.00;99.90;;;;;;4890600;29;20032;-71
2021/11/24 01:56:51;;;;;;;9.30;1.45;;;7.90;99.90;;;;;;4891021;29;20335;-71
2021/11/24 01:59:17;;;;;;;7.35;1.60;;;7.80;99.90;;;;;;4891803;29;20043;-71
2021/11/24 02:01:45;;;;;;;7.88;1.65;;;7.80;99.90;;;;;;4892251;29;20028;-71
2021/11/24 02:04:12;;;;;;;9.02;2.03;;;7.80;99.90;;;;;;4891496;29;20272;-71
2021/11/24 02:06:38;;;;;;;7.57;1.17;;;7.80;99.90;;;;;;4888924;29;20037;-71
2021/11/24 02:09:05;;;;;;;7.70;1.17;;;7.80;99.90;;;;;;4891179;29;20031;-71
2021/11/24 02:11:36;;;;;;;5.38;1.20;;;8.00;99.90;;;;;;4891839;29;20263;-71
2021/11/24 02:14:02;;;;;;;11.30;1.15;;;8.10;99.90;;;;;;4889600;29;20032;-71
2021/11/24 02:16:28;;;;;;;9.75;1.73;;;8.10;99.90;;;;;;4874090;29;20032;-71
2021/11/24 02:18:54;;;;;;;11.52;1.00;;;8.20;99.90;;;;;;4891913;29;20055;-71
2021/11/24 02:21:20;;;;;;;5.43;0.60;;;8.20;99.90;;;;;;4889621;29;20037;-71
2021/11/24 02:23:46;;;;;;;7.43;1.45;;;8.20;99.90;;;;;;4890697;29;20092;-71
2021/11/24 02:26:12;;;;;;;8.68;1.23;;;8.20;99.90;;;;;;4891432;29;20394;-71
2021/11/24 02:28:41;;;;;;;7.78;0.80;;;8.30;99.90;;;;;;4890611;29;20041;-71
2021/11/24 02:31:17;;;;;;;6.10;0.77;;;8.30;99.90;;;;;;4889861;29;20040;-71
2021/11/24 02:33:51;;;;;;;7.13;1.48;;;8.30;99.90;;;;;;4891748;29;20036;-71
2021/11/24 02:36:17;;;;;;;9.38;1.45;;;8.30;99.90;;;;;;4879594;29;20252;-71
2021/11/24 02:38:45;;;;;;;5.65;0.90;;;8.30;99.90;;;;;;4891707;29;20035;-72
2021/11/24 02:41:11;;;;;;;5.13;0.68;;;8.30;99.90;;;;;;4892297;29;20369;-71
2021/11/24 02:43:37;;;;;;;5.75;1.02;;;8.30;99.90;;;;;;4890147;29;20029;-71
2021/11/24 02:46:02;;;;;;;1.85;0.60;;;8.30;99.90;;;;;;4890032;29;20289;-71
2021/11/24 02:48:28;;;;;;;6.82;1.40;;;8.30;99.90;;;;;;4890436;29;20032;-71
2021/11/24 02:50:54;;;;;;;2.38;0.52;;;8.40;99.90;;;;;;4890305;29;20129;-71
2021/11/24 02:53:34;;;;;;;4.90;0.90;;;8.40;99.90;;;;;;4890830;29;20043;-71
2021/11/24 02:56:02;;;;;;;3.45;0.60;;;8.50;99.90;;;;;;4890975;29;20193;-71
2021/11/24 02:58:28;;;;;;;2.65;0.30;;;8.40;99.90;;;;;;4888767;29;20120;-72
2021/11/24 03:00:55;;;;;;;4.07;0.60;;;8.40;99.90;;;;;;4890282;29;20291;-71
2021/11/24 03:03:21;;;;;;;2.35;0.43;;;8.40;99.90;;;;;;4890636;29;20062;-71
2021/11/24 03:05:47;;;;;;;5.05;0.50;;;8.40;99.90;;;;;;4890978;29;20294;-72
2021/11/24 03:08:13;;;;;;;1.77;0.60;;;8.30;99.90;;;;;;4889946;29;20032;-71
2021/11/24 03:10:39;;;;;;;5.93;0.50;;;8.30;99.90;;;;;;4872900;29;20036;-72
2021/11/24 03:13:06;;;;;;;2.75;0.50;;;8.30;99.90;;;;;;4872812;29;20547;-72
2021/11/24 03:15:32;;;;;;;4.60;0.55;;;8.20;99.90;;;;;;4890429;29;20032;-72
2021/11/24 03:17:59;;;;;;;6.88;0.70;;;8.20;99.90;;;;;;4889776;29;20060;-72
2021/11/24 03:20:27;;;;;;;6.15;1.20;;;8.30;99.90;;;;;;4889733;29;20039;-72
2021/11/24 03:22:54;;;;;;;2.97;0.70;;;8.40;99.90;;;;;;4888906;29;20044;-72
2021/11/24 03:25:20;;;;;;;3.92;1.13;;;8.40;99.90;;;;;;4889471;29;20048;-72
2021/11/24 03:27:46;;;;;;;5.38;1.10;;;8.40;99.90;;;;;;4888108;29;20041;-72
2021/11/24 03:30:20;;;;;;;5.95;1.50;;;8.40;99.90;;;;;;4889758;29;20280;-72
2021/11/24 03:32:47;;;;;;;7.70;1.20;;;8.30;99.90;;;;;;4890099;29;20036;-72
2021/11/24 03:35:14;;;;;;;7.70;1.35;;;8.30;99.90;;;;;;4889643;29;20331;-72
2021/11/24 03:37:40;;;;;;;8.45;1.45;;;8.20;99.90;;;;;;4889685;29;20025;-72
2021/11/24 03:40:08;;;;;;;8.85;0.82;;;8.20;99.90;;;;;;4889713;29;20184;-72
2021/11/24 03:42:35;;;;;;;4.60;1.20;;;8.10;99.90;;;;;;4889052;29;20335;-72
2021/11/24 03:45:01;;;;;;;2.38;0.70;;;8.10;99.90;;;;;;4889706;29;20108;-72
2021/11/24 03:47:26;;;;;;;5.85;0.65;;;8.10;99.90;;;;;;4889457;29;20025;-72
2021/11/24 03:49:52;;;;;;;3.63;0.75;;;8.10;99.90;;;;;;4889427;29;20029;-72
2021/11/24 03:52:18;;;;;;;7.50;0.65;;;8.00;99.90;;;;;;4872256;29;20056;-72
2021/11/24 03:54:44;;;;;;;5.15;1.13;;;8.00;99.90;;;;;;4889618;29;20047;-72
2021/11/24 03:57:10;;;;;;;6.47;0.60;;;8.00;99.90;;;;;;4888895;29;20041;-72
2021/11/24 03:59:36;;;;;;;5.65;0.73;;;8.00;99.90;;;;;;4889276;29;20035;-72
2021/11/24 04:02:02;;;;;;;7.13;0.90;;;8.00;99.90;;;;;;4889217;29;20039;-72
2021/11/24 04:04:28;;;;;;;6.20;1.15;;;8.00;99.90;;;;;;4879268;29;20029;-72
2021/11/24 04:06:54;;;;;;;5.80;0.82;;;8.00;99.90;;;;;;4889644;29;20032;-72
2021/11/24 04:09:20;;;;;;;4.00;0.65;;;8.00;99.90;;;;;;4889283;29;20025;-72
2021/11/24 04:11:46;;;;;;;4.65;1.08;;;8.00;99.90;;;;;;4871658;29;20229;-72
2021/11/24 04:14:12;;;;;;;5.93;0.80;;;8.10;99.90;;;;;;4888300;29;20442;-72
2021/11/24 04:16:37;;;;;;;8.85;0.98;;;8.10;99.90;;;;;;4887059;29;20296;-73
2021/11/24 04:19:03;;;;;;;7.20;1.02;;;8.10;99.90;;;;;;4887964;29;20048;-72
2021/11/24 04:21:30;;;;;;;6.55;1.20;;;8.20;99.90;;;;;;4888277;29;20032;-72
2021/11/24 04:23:57;;;;;;;1.77;0.60;;;8.20;99.90;;;;;;4888126;29;20056;-72
2021/11/24 04:26:23;;;;;;;13.07;1.45;;;8.10;99.90;;;;;;4888536;29;20064;-73
2021/11/24 04:28:49;;;;;;;3.83;1.25;;;8.10;99.90;;;;;;4888076;29;20037;-73
2021/11/24 04:31:15;;;;;;;5.85;0.80;;;8.00;99.90;;;;;;4888065;29;20039;-72
2021/11/24 04:33:41;;;;;;;3.25;0.80;;;8.00;99.90;;;;;;4888355;29;20075;-72
2021/11/24 04:36:07;;;;;;;2.25;1.00;;;7.90;99.90;;;;;;4887685;29;20299;-72
2021/11/24 04:38:34;;;;;;;7.40;1.10;;;7.90;99.90;;;;;;4885841;29;20260;-72
2021/11/24 04:41:00;;;;;;;7.38;1.00;;;7.90;99.90;;;;;;4887470;29;20532;-72
2021/11/24 04:43:32;;;;;;;4.35;0.80;;;7.90;99.90;;;;;;4888898;29;20016;-72
2021/11/24 04:46:00;;;;;;;3.40;0.70;;;7.90;99.90;;;;;;4888624;29;20032;-72
2021/11/24 04:48:26;;;;;;;2.97;0.80;;;7.90;99.90;;;;;;4889309;29;20044;-72
2021/11/24 04:50:53;;;;;;;5.22;0.88;;;7.90;99.90;;;;;;4887543;29;20031;-72
2021/11/24 04:53:19;;;;;;;4.82;0.60;;;7.90;99.90;;;;;;4887742;29;20204;-72
2021/11/24 04:55:44;;;;;;;0.52;0.40;;;7.90;99.90;;;;;;4889069;29;20140;-72
2021/11/24 04:58:11;;;;;;;4.90;0.60;;;7.80;99.90;;;;;;4886378;29;20034;-72
2021/11/24 05:00:37;;;;;;;4.93;0.70;;;7.80;99.90;;;;;;4888450;29;20398;-72
2021/11/24 05:03:03;;;;;;;5.63;0.60;;;7.80;99.90;;;;;;4887702;29;20422;-72
2021/11/24 05:05:30;;;;;;;6.63;0.85;;;7.70;99.90;;;;;;4889952;29;20041;-72
2021/11/24 05:07:57;;;;;;;4.88;0.95;;;7.80;99.90;;;;;;4889061;29;20104;-72
2021/11/24 05:10:23;;;;;;;3.45;0.60;;;7.90;99.90;;;;;;4887734;29;20028;-72
2021/11/24 05:12:50;;;;;;;6.70;0.77;;;8.00;99.90;;;;;;4889290;29;20033;-72
2021/11/24 05:15:22;;;;;;;5.57;0.98;;;8.00;99.90;;;;;;4888261;29;20048;-72
2021/11/24 05:17:53;;;;;;;3.85;0.60;;;8.10;99.90;;;;;;4888951;29;20032;-72
2021/11/24 05:20:23;;;;;;;4.57;1.27;;;8.10;99.90;;;;;;4887230;29;20439;-72
2021/11/24 05:22:49;;;;;;;9.18;0.68;;;8.10;99.90;;;;;;4888601;29;20067;-72
2021/11/24 05:25:15;;;;;;;4.55;0.57;;;8.10;99.90;;;;;;4888255;29;20032;-72
2021/11/24 05:27:41;;;;;;;6.18;1.00;;;8.00;99.90;;;;;;4888960;29;20029;-72
2021/11/24 05:30:09;;;;;;;2.13;0.65;;;8.00;99.90;;;;;;4886326;29;20218;-72
2021/11/24 05:32:36;;;;;;;6.10;1.33;;;8.00;99.90;;;;;;4889168;29;20361;-72
2021/11/24 05:35:03;;;;;;;5.20;0.90;;;7.90;99.90;;;;;;4888023;29;20040;-72
2021/11/24 05:37:29;;;;;;;4.85;1.02;;;7.90;99.90;;;;;;4882365;29;20033;-73
2021/11/24 05:39:55;;;;;;;6.97;1.00;;;7.90;99.90;;;;;;4886580;29;20294;-72
2021/11/24 05:42:21;;;;;;;3.50;0.80;;;7.90;99.90;;;;;;4887782;29;20123;-73
2021/11/24 05:44:49;;;;;;;7.05;0.98;;;7.90;99.90;;;;;;4889050;29;20036;-73
2021/11/24 05:49:59;;;;;;;6.00;0.80;;;7.90;99.90;;;;;;4884850;29;20033;-72
2021/11/24 05:52:25;;;;;;;4.32;0.57;;;7.90;99.90;;;;;;4886642;29;20048;-72
2021/11/24 05:54:51;;;;;;;9.98;0.93;;;7.80;99.90;;;;;;4885646;29;20287;-72
2021/11/24 05:57:17;;;;;;;2.13;0.80;;;7.80;99.90;;;;;;4888471;29;20036;-72
2021/11/24 05:59:43;;;;;;;7.38;1.20;;;7.80;99.90;;;;;;4888383;29;20253;-72
2021/11/24 06:02:09;;;;;;;2.90;0.70;;;7.70;99.90;;;;;;4888399;29;20029;-73
2021/11/24 06:04:35;;;;;;;5.22;1.60;;;7.70;99.90;;;;;;4889037;29;20257;-72
2021/11/24 06:07:00;;;;;;;5.47;2.47;;;7.60;99.90;;;;;;4885517;29;20029;-72
2021/11/24 06:09:26;;;;;;;5.60;1.42;;;7.60;99.90;;;;;;4889728;29;20024;-72
2021/11/24 06:11:52;;;;;;;1.90;0.90;;;7.60;99.90;;;;;;4891269;29;20033;-72
2021/11/24 06:14:18;;;;;;;2.70;0.98;;;7.70;99.90;;;;;;4891852;29;20036;-72
2021/11/24 06:16:43;;;;;;;6.18;0.50;;;7.70;99.90;;;;;;4892086;29;20059;-72
2021/11/24 06:19:09;;;;;;;8.43;0.98;;;7.80;99.90;;;;;;4891309;29;20052;-72
2021/11/24 06:21:35;;;;;;;3.25;0.30;;;7.90;99.90;;;;;;4890737;29;20293;-72
2021/11/24 06:24:01;;;;;;;5.78;0.60;;;8.00;99.90;;;;;;4890942;29;20319;-72
2021/11/24 06:26:27;;;;;;;4.13;0.50;;;8.00;99.90;;;;;;4891917;29;20113;-72
2021/11/24 06:28:53;;;;;;;4.13;0.60;;;8.00;99.90;;;;;;4890530;29;20037;-72
2021/11/24 06:31:20;;;;;;;1.15;0.57;;;7.90;99.90;;;;;;4887188;29;20033;-72
2021/11/24 06:33:45;;;;;;;2.75;0.50;;;7.90;99.90;;;;;;4891491;29;20037;-72
2021/11/24 06:36:11;;;;;;;4.90;0.45;;;7.90;99.90;;;;;;4893265;29;20292;-72
2021/11/24 06:38:37;;;;;;;3.55;0.50;;;7.80;99.90;;;;;;4890929;29;20035;-72
2021/11/24 06:41:03;;;;;;;5.80;1.13;;;7.80;99.90;;;;;;4892053;29;20276;-72
2021/11/24 06:43:29;;;;;;;4.40;0.75;;;7.80;99.90;;;;;;4890538;29;20104;-72
2021/11/24 06:45:55;;;;;;;2.70;0.50;;;7.80;99.90;;;;;;4891498;29;20803;-72
2021/11/24 06:48:21;;;;;;;1.75;0.40;;;7.80;99.90;;;;;;4891213;29;20040;-72
2021/11/24 06:50:46;;;;;;;3.75;0.73;;;7.70;99.90;;;;;;4890770;29;20032;-72
2021/11/24 06:53:12;;;;;;;3.60;0.70;;;7.70;99.90;;;;;;4890275;29;20319;-72
2021/11/24 06:55:38;;;;;;;3.33;0.80;;;7.60;99.90;;;;;;4874520;29;20059;-72
2021/11/24 06:58:04;;;;;;;2.58;0.82;;;7.50;99.90;;;;;;4890693;29;20052;-72
2021/11/24 07:00:30;;;;;;;5.75;1.05;;;7.50;99.90;;;;;;4889239;29;20418;-72
2021/11/24 07:02:56;;;;;;;6.90;1.23;;;7.40;99.90;;;;;;4892975;29;20035;-72
2021/11/24 07:05:21;;;;;;;7.65;1.92;;;7.40;99.90;;;;;;4890150;29;20059;-72
2021/11/24 07:07:47;;;;;;;6.90;1.30;;;7.40;99.90;;;;;;4891244;29;20215;-72
2021/11/24 07:10:13;;;;;;;6.85;1.40;;;7.40;99.90;;;;;;4873017;29;20319;-72
2021/11/24 07:12:39;;;;;;;3.75;0.73;;;7.50;99.90;;;;;;4892814;29;20036;-72
2021/11/24 07:15:06;;;;;;;5.90;1.10;;;7.50;99.90;;;;;;4890953;29;20044;-73
2021/11/24 07:17:31;;;;;;;9.27;1.42;;;7.60;99.90;;;;;;4891135;29;20099;-72
2021/11/24 07:20:00;;;;;;;3.67;0.80;;;7.60;99.90;;;;;;4890733;29;20067;-72
2021/11/24 07:22:26;;;;;;;3.67;0.80;;;7.60;99.90;;;;;;4890254;29;20053;-72
2021/11/24 07:24:52;;;;;;;9.23;1.30;;;7.60;99.90;;;;;;4890291;29;20460;-72
2021/11/24 07:27:18;;;;;;;3.35;0.75;;;7.70;99.90;;;;;;4890616;29;20043;-72
2021/11/24 07:29:44;;;;;;;4.30;1.02;;;7.70;99.90;;;;;;4889524;29;20036;-72
2021/11/24 07:32:09;;;;;;;7.40;1.30;;;7.60;99.90;;;;;;4890942;29;20036;-73
2021/11/24 07:34:35;;;;;;;5.90;1.30;;;7.70;99.90;;;;;;4889959;29;20101;-73
2021/11/24 07:37:01;;;;;;;3.35;1.08;;;7.80;99.90;;;;;;4891515;29;20201;-73
2021/11/24 07:39:27;;;;;;;4.80;1.63;;;7.80;99.90;;;;;;4889124;29;20032;-72
2021/11/24 07:41:53;;;;;;;6.07;2.33;;;7.90;99.90;;;;;;4891016;29;20031;-72
2021/11/24 07:44:19;;;;;;;9.82;3.17;;;8.00;99.90;;;;;;4890932;29;20165;-72
2021/11/24 07:46:45;;;;;;;6.15;1.33;;;8.00;99.90;;;;;;4889848;29;20028;-72
2021/11/24 07:49:11;;;;;;;3.42;0.77;;;8.10;99.90;;;;;;4871297;29;20032;-72
2021/11/24 07:51:36;;;;;;;2.58;0.70;;;8.20;99.90;;;;;;4890143;29;20056;-72
2021/11/24 07:54:02;;;;;;;4.82;0.93;;;8.20;99.90;;;;;;4889786;29;20083;-72
2021/11/24 07:56:28;;;;;;;4.40;0.90;;;8.20;99.90;;;;;;4892027;29;20052;-72
2021/11/24 07:58:54;;;;;;;3.47;1.05;;;8.30;99.90;;;;;;4891904;29;20040;-73
2021/11/24 08:01:20;;;;;;;4.28;1.05;;;8.30;99.90;;;;;;4888295;29;20286;-73
2021/11/24 08:03:46;;;;;;;3.50;0.93;;;8.30;99.90;;;;;;4872847;29;20277;-72
2021/11/24 08:06:12;;;;;;;5.68;0.60;;;8.30;99.90;;;;;;4891095;29;20328;-72
2021/11/24 08:08:39;;;;;;;5.38;1.05;;;8.30;99.90;;;;;;4888880;29;20342;-72
2021/11/24 08:11:05;;;;;;;4.30;0.70;;;8.40;99.90;;;;;;4872389;29;20103;-72
2021/11/24 08:13:31;;;;;;;6.10;0.80;;;8.30;99.90;;;;;;4890067;29;20069;-72
2021/11/24 08:15:57;;;;;;;3.17;0.52;;;8.40;99.90;;;;;;4889529;29;20116;-72
2021/11/24 08:18:23;;;;;;;4.82;0.80;;;8.40;99.90;;;;;;4890497;29;20032;-72
2021/11/24 08:20:49;;;;;;;3.80;0.70;;;8.40;99.90;;;;;;4889309;29;20030;-72
2021/11/24 08:23:15;;;;;;;4.75;1.00;;;8.50;99.90;;;;;;4890471;29;20418;-72
2021/11/24 08:25:41;;;;;;;6.53;0.75;;;8.60;99.90;;;;;;4871362;29;20064;-72
2021/11/24 08:28:07;;;;;;;3.53;0.95;;;8.70;99.90;;;;;;4889265;29;20040;-72
2021/11/24 08:30:33;;;;;;;8.68;2.15;;;8.80;99.90;;;;;;4890987;29;20362;-72
2021/11/24 08:32:59;;;;;;;2.22;0.95;;;8.70;99.90;;;;;;4888425;29;20025;-72
2021/11/24 08:35:25;;;;;;;5.93;1.17;;;8.80;99.90;;;;;;4890058;29;20084;-72
2021/11/24 08:37:51;;;;;;;6.47;0.90;;;8.70;99.90;;;;;;4890575;29;20295;-72
2021/11/24 08:40:18;;;;;;;4.40;0.95;;;8.70;99.90;;;;;;4888741;29;20105;-73
2021/11/24 08:42:44;;;;;;;5.70;1.10;;;8.80;99.90;;;;;;4889198;29;20104;-72
2021/11/24 08:45:11;;;;;;;3.97;0.90;;;8.80;99.90;;;;;;4886157;29;20036;-72
2021/11/24 08:47:38;;;;;;;6.63;1.15;;;8.70;99.90;;;;;;4889648;29;20044;-72
2021/11/24 08:50:06;;;;;;;5.80;0.77;;;8.80;99.90;;;;;;4871781;29;20367;-72
2021/11/24 08:52:32;;;;;;;3.83;0.60;;;8.70;99.90;;;;;;4888722;29;20035;-72
2021/11/24 08:54:58;;;;;;;2.78;0.50;;;8.70;99.90;;;;;;4886189;29;20080;-72
2021/11/24 08:57:24;;;;;;;1.00;0.50;;;8.70;99.90;;;;;;4885535;29;20028;-72
2021/11/24 08:59:50;;;;;;;6.07;0.68;;;8.70;99.90;;;;;;4890043;29;20033;-72
2021/11/24 09:02:16;;;;;;;1.60;0.55;;;8.70;99.90;;;;;;4887530;29;20124;-72
2021/11/24 09:04:42;;;;;;;4.45;1.05;;;8.70;99.90;;;;;;4889150;29;20028;-72
2021/11/24 09:07:08;;;;;;;1.52;0.55;;;8.80;99.90;;;;;;4887988;29;20043;-72
2021/11/24 09:09:35;;;;;;;3.83;0.70;;;8.70;99.90;;;;;;4888820;29;20028;-72
2021/11/24 09:12:02;;;;;;;2.05;0.45;;;8.80;99.90;;;;;;4888345;29;21285;-73
2021/11/24 09:14:28;;;;;;;4.20;0.70;;;8.90;99.90;;;;;;4889509;29;20045;-72
2021/11/24 09:16:54;;;;;;;1.85;0.60;;;9.10;99.90;;;;;;4888119;29;20238;-72
2021/11/24 09:19:20;;;;;;;6.38;0.77;;;9.20;99.90;;;;;;4888616;29;20036;-73
2021/11/24 09:21:45;;;;;;;1.95;0.50;;;9.60;99.90;;;;;;4887351;29;20032;-72
2021/11/24 09:24:14;;;;;;;5.07;0.80;;;9.70;99.90;;;;;;4887517;29;20041;-73
2021/11/24 09:26:49;;;;;;;7.82;1.40;;;9.60;99.90;;;;;;4888003;29;20051;-72
2021/11/24 09:29:16;;;;;;;3.55;0.65;;;9.40;99.90;;;;;;4887080;29;20032;-73
2021/11/24 09:31:41;;;;;;;3.88;0.45;;;9.30;99.90;;;;;;4886135;29;20048;-72
2021/11/24 09:34:07;;;;;;;6.05;0.80;;;9.20;99.90;;;;;;4891028;29;20037;-73
2021/11/24 09:36:34;;;;;;;9.25;1.27;;;9.20;99.90;;;;;;4888885;29;20040;-72
2021/11/24 09:39:01;;;;;;;3.55;0.77;;;9.30;99.90;;;;;;4887558;29;20032;-73
2021/11/24 09:41:31;;;;;;;2.85;0.55;;;10.00;99.90;;;;;;4889042;29;20043;-73
2021/11/24 09:43:56;;;;;;;2.42;0.73;;;11.20;99.90;;;;;;4888728;29;20054;-73
2021/11/24 09:46:25;;;;;;;3.15;0.70;;;12.30;99.90;;;;;;4892203;29;20032;-72
2021/11/24 09:48:51;;;;;;;2.55;0.60;;;12.10;99.90;;;;;;4891839;29;20107;-72
2021/11/24 09:51:19;;;;;;;4.72;0.60;;;11.60;99.90;;;;;;4891409;29;20227;-72
2021/11/24 09:53:49;;;;;;;4.35;0.55;;;10.80;99.90;;;;;;4892193;29;20029;-72
2021/11/24 09:56:17;;;;;;;4.57;0.85;;;10.40;99.90;;;;;;4893337;29;20285;-72
2021/11/24 09:58:43;;;;;;;5.28;1.40;;;10.10;99.90;;;;;;4893054;29;20024;-72
2021/11/24 10:01:09;;;;;;;8.07;1.30;;;10.00;99.90;;;;;;4892082;29;20041;-72
2021/11/24 10:03:34;;;;;;;2.58;0.70;;;9.80;99.90;;;;;;4891482;29;20067;-72
2021/11/24 10:06:01;;;;;;;12.02;1.45;;;9.70;99.90;;;;;;4890611;29;20134;-72
2021/11/24 10:08:31;;;;;;;3.78;0.68;;;9.50;99.90;;;;;;4893071;29;20028;-72
2021/11/24 10:10:59;;;;;;;5.93;0.77;;;9.40;99.90;;;;;;4890664;29;20035;-71
2021/11/24 10:13:27;;;;;;;3.00;0.93;;;9.40;99.90;;;;;;4891116;29;20542;-72
2021/11/24 10:15:56;;;;;;;8.13;1.20;;;9.40;99.90;;;;;;4891191;29;20308;-72
2021/11/24 10:18:27;;;;;;;3.17;0.70;;;9.40;99.90;;;;;;4891956;29;20049;-72
2021/11/24 10:21:10;;;;;;;5.80;0.70;;;9.80;99.90;;;;;;4891166;29;20088;-72
2021/11/24 10:23:40;;;;;;;3.22;1.08;;;10.00;99.90;;;;;;4891341;29;20044;-73
2021/11/24 10:26:22;;;;;;;4.30;0.70;;;10.40;99.90;;;;;;4891042;29;20032;-72
2021/11/24 10:29:02;;;;;;;7.78;1.27;;;11.00;99.90;;;;;;4875933;29;20036;-72
2021/11/24 10:31:44;;;;;;;3.50;0.63;;;11.70;99.90;;;;;;4890487;29;20224;-73
2021/11/24 10:34:31;;;;;;;3.90;0.73;;;12.50;99.90;;;;;;4892842;29;20499;-73
2021/11/24 10:37:06;;;;;;;3.50;0.50;;;13.40;99.90;;;;;;4890399;29;20707;-73
2021/11/24 10:39:35;;;;;;;5.80;0.77;;;14.00;99.90;;;;;;4889242;29;20123;-73
2021/11/24 10:42:24;;;;;;;5.05;0.47;;;13.40;99.90;;;;;;4889970;29;20033;-72
2021/11/24 10:44:54;;;;;;;4.47;1.02;;;12.70;99.90;;;;;;4890578;29;20032;-72
2021/11/24 10:47:21;;;;;;;;;;;11.70;99.90;;;;;;4891691;29;20080;-72
2021/11/24 10:49:52;;;;;;;3.85;0.60;;;11.30;99.90;;;;;;4891079;29;19922;-72
2021/11/24 10:52:26;;;;;;;5.07;0.47;;;10.80;99.90;;;;;;4876150;29;20036;-72
2021/11/24 10:55:21;;;;;;;2.03;0.47;;;10.50;99.90;;;;;;4891073;29;20104;-72
2021/11/24 10:58:16;;;;;;;3.03;0.60;;;10.40;99.90;;;;;;4889940;29;20335;-72
2021/11/24 11:00:48;;;;;;;3.10;0.70;;;10.40;99.90;;;;;;4890922;29;20528;-72
2021/11/24 11:03:14;;;;;;;2.08;0.68;;;11.60;99.90;;;;;;4889094;29;20354;-72
2021/11/24 11:05:42;;;;;;;11.65;0.88;;;12.10;99.90;;;;;;4889765;29;20032;-72
2021/11/24 11:08:10;;;;;;;10.70;1.10;;;11.90;99.90;;;;;;4890167;29;20414;-72
2021/11/24 11:10:39;;;;;;;2.85;0.30;;;11.40;99.90;;;;;;4890767;29;20331;-72
2021/11/24 11:13:12;;;;;;;6.20;0.50;;;11.10;99.90;;;;;;4889822;29;20350;-72
2021/11/24 11:15:46;;;;;;;3.60;0.50;;;10.70;99.90;;;;;;4889787;29;20044;-72
2021/11/24 11:18:25;;;;;;;2.65;0.40;;;10.50;99.90;;;;;;4889998;29;20033;-72
2021/11/24 11:20:53;;;;;;;2.53;0.63;;;10.30;99.90;;;;;;4890965;29;20409;-72
2021/11/24 11:23:27;;;;;;;1.48;0.40;;;10.10;99.90;;;;;;4890811;29;20052;-72
2021/11/24 11:25:59;;;;;;;3.13;0.50;;;10.10;99.90;;;;;;4890815;29;20037;-72
2021/11/24 11:28:32;;;;;;;1.77;0.55;;;10.10;99.90;;;;;;4874612;29;20036;-72
2021/11/24 11:31:03;;;;;;;0.40;0.28;;;10.00;99.90;;;;;;4888775;29;20255;-72
2021/11/24 11:33:34;;;;;;;2.05;0.57;;;10.10;99.90;;;;;;4889594;29;20029;-72
2021/11/24 11:36:06;;;;;;;1.95;0.57;;;10.20;99.90;;;;;;4890129;29;20037;-73
2021/11/24 11:38:34;;;;;;;2.83;0.52;;;11.20;99.90;;;;;;4873601;29;20100;-72
2021/11/24 11:41:02;;;;;;;3.67;0.50;;;11.90;99.90;;;;;;4888537;29;20341;-72
2021/11/24 11:43:29;;;;;;;4.38;0.60;;;11.80;99.90;;;;;;4891303;29;20028;-72
2021/11/24 11:45:55;;;;;;;4.60;0.50;;;11.40;99.90;;;;;;4889391;29;20032;-72
2021/11/24 11:48:32;;;;;;;1.13;0.50;;;11.20;99.90;;;;;;4888708;29;20028;-72
2021/11/24 11:51:01;;;;;;;2.78;0.50;;;11.00;99.90;;;;;;4889244;29;20032;-72
2021/11/24 11:53:39;;;;;;;2.75;0.60;;;10.60;99.90;;;;;;4890182;29;20035;-72
2021/11/24 11:56:07;;;;;;;2.05;0.70;;;10.40;99.90;;;;;;4888888;29;20062;-72
2021/11/24 11:58:34;;;;;;;3.83;0.60;;;10.30;99.90;;;;;;4889225;29;20035;-73
2021/11/24 12:01:31;;;;;;;1.73;0.50;;;10.20;99.90;;;;;;4887765;29;20029;-73
2021/11/24 12:04:04;;;;;;;4.30;0.30;;;10.10;99.90;;;;;;4887802;29;20051;-73
2021/11/24 12:06:33;;;;;;;2.17;0.55;;;10.00;99.90;;;;;;4872804;29;20121;-73
2021/11/24 12:09:08;;;;;;;3.67;0.80;;;9.80;99.90;;;;;;4890054;29;20025;-73
2021/11/24 12:11:59;;;;;;;2.60;0.40;;;9.60;99.90;;;;;;4889424;29;20314;-72
2021/11/24 12:14:54;;;;;;;3.63;0.70;;;9.60;99.90;;;;;;4887833;29;20381;-73
2021/11/24 12:17:40;;;;;;;2.95;0.57;;;9.50;99.90;;;;;;4888320;29;20552;-73
2021/11/24 12:20:19;;;;;;;3.63;0.70;;;9.50;99.90;;;;;;4889626;29;20446;-73
2021/11/24 12:22:48;;;;;;;6.63;0.90;;;9.70;99.90;;;;;;4887928;29;20052;-73
2021/11/24 12:25:34;;;;;;;8.30;1.10;;;9.60;99.90;;;;;;4888704;29;20072;-72
2021/11/24 12:28:01;;;;;;;5.22;0.82;;;9.60;99.90;;;;;;4881851;29;20112;-72
2021/11/24 12:30:53;;;;;;;6.82;0.75;;;9.50;99.90;;;;;;4887448;29;20028;-73
2021/11/24 12:33:29;;;;;;;9.85;1.83;;;9.50;99.90;;;;;;4888822;29;20036;-72
2021/11/24 12:36:08;;;;;;;4.18;0.73;;;9.50;99.90;;;;;;4886627;29;20052;-73
2021/11/24 12:38:35;;;;;;;4.28;0.68;;;9.50;99.90;;;;;;4890235;29;20025;-73
2021/11/24 12:41:07;;;;;;;3.45;0.55;;;9.70;99.90;;;;;;4886606;29;20028;-73
2021/11/24 12:43:41;;;;;;;8.18;0.75;;;10.40;99.90;;;;;;4889562;29;20185;-73
2021/11/24 12:46:17;;;;;;;1.15;0.40;;;11.50;99.90;;;;;;4890338;29;20319;-73
2021/11/24 12:48:54;;;;;;;2.05;0.38;;;11.70;99.90;;;;;;4888652;29;20204;-72
2021/11/24 12:51:31;;;;;;;2.80;0.65;;;11.40;99.90;;;;;;4887820;29;20033;-72
2021/11/24 12:54:10;;;;;;;7.97;0.68;;;11.40;99.90;;;;;;4890013;29;20036;-72
2021/11/24 12:56:52;;;;;;;2.78;0.60;;;11.10;99.90;;;;;;4888005;29;20036;-72
2021/11/24 12:59:21;;;;;;;2.63;0.82;;;10.70;99.90;;;;;;4888929;29;20088;-72
2021/11/24 13:01:55;;;;;;;;;;;10.60;99.90;;;;;;4873573;29;21805;-72
2021/11/24 13:04:23;;;;;;;1.65;0.40;;;10.30;99.90;;;;;;4890387;29;19955;-72